Terminal Aerodrome Forecast
Issued by NWS Tampa Bay Area, FL

Home | Current Version | Previous Version | Text Only | Print | Product List | Glossary On
Versions: 1 2 3 4 5 6 7 8 9 10 11 12 13 14 15 16 17 18 19 20
000
FTUS42 KTBW 300500
TAFSRQ
TAF
KSRQ 300536Z 3006/0106 VRB05KT P6SM SCT020 BKN080
     FM300900 22006KT P6SM VCSH SCT020 BKN080
     FM301400 25009KT P6SM VCTS SCT025CB BKN080
     FM302100 28008KT P6SM VCTS SCT030CB BKN080
     FM010200 VRB04KT P6SM SCT025 SCT150=

USA.gov is the U.S. government's official web portal to all federal, state and local government web resources and services.